createdAt,value
2022-10-09T00:00:12.891Z,12.75
2022-10-09T00:03:16.951Z,12.93
2022-10-09T00:06:25.269Z,11.85
2022-10-09T00:09:27.125Z,13.00
2022-10-09T00:12:28.968Z,12.50
2022-10-09T00:15:30.818Z,11.82
2022-10-09T00:18:32.866Z,12.00
2022-10-09T00:21:35.007Z,13.20
2022-10-09T00:24:36.891Z,12.55
2022-10-09T00:27:38.789Z,12.65
2022-10-09T00:30:40.690Z,12.50
2022-10-09T00:33:42.658Z,13.10
2022-10-09T00:36:44.473Z,13.30
2022-10-09T00:39:46.379Z,13.15
2022-10-09T00:42:55.131Z,14.55
2022-10-09T00:45:57.156Z,12.55
2022-10-09T00:49:14.488Z,15.15
2022-10-09T00:52:17.167Z,12.45
2022-10-09T00:55:19.712Z,15.15
2022-10-09T00:58:23.047Z,11.88
2022-10-09T01:04:26.815Z,12.60
2022-10-09T01:07:31.349Z,12.52
2022-10-09T01:11:06.782Z,14.90
2022-10-09T01:14:08.572Z,12.15
2022-10-09T01:17:25.232Z,13.13
2022-10-09T01:20:37.982Z,12.90
2022-10-09T01:24:07.717Z,12.93
2022-10-09T01:27:23.815Z,14.50
2022-10-09T01:30:25.763Z,13.57
2022-10-09T01:33:30.570Z,14.02
2022-10-09T01:36:33.971Z,14.52
2022-10-09T01:39:38.277Z,16.05
2022-10-09T01:42:40.459Z,13.27
2022-10-09T01:45:44.615Z,15.02
2022-10-09T01:49:12.716Z,13.55
2022-10-09T01:52:30.012Z,14.98
2022-10-09T01:55:55.326Z,12.75
2022-10-09T01:59:01.087Z,14.35
2022-10-09T02:02:03.481Z,13.38
2022-10-09T02:05:06.907Z,12.73
2022-10-09T02:08:13.696Z,14.10
2022-10-09T02:11:16.155Z,12.63
2022-10-09T02:14:18.348Z,12.93
2022-10-09T02:17:27.011Z,15.25
2022-10-09T02:20:33.105Z,13.68
2022-10-09T02:23:36.865Z,14.68
2022-10-09T02:26:39.482Z,14.63
2022-10-09T02:29:45.531Z,13.32
2022-10-09T02:32:54.758Z,13.13
2022-10-09T02:35:56.666Z,15.40
2022-10-09T02:38:59.159Z,14.40
2022-10-09T02:42:01.111Z,15.83
2022-10-09T02:45:03.289Z,14.93
2022-10-09T02:48:05.138Z,15.38
2022-10-09T02:51:07.201Z,15.05
2022-10-09T02:54:09.638Z,17.25
2022-10-09T02:57:11.600Z,13.67
2022-10-09T03:00:13.919Z,14.35
2022-10-09T03:03:15.815Z,14.45
2022-10-09T03:06:22.920Z,15.10
2022-10-09T03:09:24.962Z,16.13
2022-10-09T03:12:26.803Z,14.98
2022-10-09T03:15:28.741Z,17.52
2022-10-09T03:18:31.561Z,17.52
2022-10-09T03:21:33.482Z,16.67
2022-10-09T03:24:35.344Z,17.70
2022-10-09T03:27:37.551Z,16.60
2022-10-09T03:30:41.605Z,17.45
2022-10-09T03:33:43.481Z,18.15
2022-10-09T03:36:45.328Z,17.55
2022-10-09T03:39:47.223Z,17.35
2022-10-09T03:42:49.284Z,17.98
2022-10-09T03:45:51.620Z,17.17
2022-10-09T03:48:53.524Z,19.95
2022-10-09T03:51:55.378Z,19.00
2022-10-09T03:54:57.210Z,19.30
2022-10-09T03:57:59.098Z,16.77
2022-10-09T04:01:01.012Z,18.40
2022-10-09T04:04:03.539Z,16.55
2022-10-09T04:07:05.390Z,19.23
2022-10-09T04:10:07.678Z,16.55
2022-10-09T04:13:09.535Z,17.48
2022-10-09T04:16:12.908Z,18.92
2022-10-09T04:19:14.882Z,18.95
2022-10-09T04:22:18.171Z,18.10
2022-10-09T04:25:20.174Z,17.38
2022-10-09T04:28:23.670Z,17.25
2022-10-09T04:31:25.726Z,19.15
2022-10-09T04:34:27.802Z,16.25
2022-10-09T04:37:29.615Z,18.30
2022-10-09T04:40:31.463Z,17.33
2022-10-09T04:43:34.618Z,17.60
2022-10-09T04:46:36.567Z,14.65
2022-10-09T04:49:38.507Z,15.43
2022-10-09T04:52:40.367Z,17.33
2022-10-09T04:55:43.626Z,15.43
2022-10-09T05:01:47.614Z,16.70
2022-10-09T05:04:49.518Z,17.98
2022-10-09T05:07:51.901Z,15.53
2022-10-09T05:10:53.797Z,16.45
2022-10-09T05:13:56.508Z,16.17
2022-10-09T05:17:13.755Z,17.88
2022-10-09T05:20:16.875Z,18.05
2022-10-09T05:23:18.825Z,18.47
2022-10-09T05:26:22.768Z,16.80
2022-10-09T05:29:24.764Z,15.70
2022-10-09T05:32:26.713Z,16.67
2022-10-09T05:35:28.833Z,19.05
2022-10-09T05:38:32.398Z,16.58
2022-10-09T05:41:34.403Z,16.05
2022-10-09T05:44:36.261Z,16.00
2022-10-09T05:47:38.119Z,16.25
2022-10-09T05:50:39.994Z,15.95
2022-10-09T05:53:43.096Z,16.85
2022-10-09T05:56:45.455Z,15.82
2022-10-09T05:59:47.688Z,16.70
2022-10-09T06:02:50.075Z,16.85
2022-10-09T06:05:52.128Z,16.70
2022-10-09T06:08:54.818Z,16.42
2022-10-09T06:11:56.761Z,17.50
2022-10-09T06:14:58.862Z,16.13
2022-10-09T06:18:00.733Z,16.35
2022-10-09T06:21:03.008Z,16.33
2022-10-09T06:24:05.712Z,17.77
2022-10-09T06:27:07.644Z,17.60
2022-10-09T06:30:10.127Z,17.90
2022-10-09T06:33:12.094Z,19.07
2022-10-09T06:36:17.131Z,19.40
2022-10-09T06:39:19.308Z,18.83
2022-10-09T06:42:21.656Z,18.85
2022-10-09T06:45:23.538Z,18.08
2022-10-09T06:48:25.400Z,19.38
2022-10-09T06:51:28.395Z,19.73
2022-10-09T06:54:30.279Z,19.40
2022-10-09T06:57:32.267Z,18.52
2022-10-09T07:00:34.117Z,18.67
2022-10-09T07:03:37.338Z,18.95
2022-10-09T07:06:42.097Z,17.90
2022-10-09T07:09:44.207Z,18.38
2022-10-09T07:12:46.366Z,17.20
2022-10-09T07:15:48.469Z,18.40
2022-10-09T07:18:50.525Z,19.35
2022-10-09T07:21:53.133Z,17.92
2022-10-09T07:24:55.090Z,18.30
2022-10-09T07:27:56.928Z,17.10
2022-10-09T07:31:03.197Z,17.17
2022-10-09T07:34:06.572Z,18.50
2022-10-09T07:40:10.381Z,15.13
2022-10-09T07:43:12.279Z,14.80
2022-10-09T07:46:16.867Z,15.48
2022-10-09T07:49:19.988Z,13.40
2022-10-09T07:52:21.899Z,14.48
2022-10-09T07:55:25.122Z,13.15
2022-10-09T07:58:27.124Z,13.82
2022-10-09T08:01:30.830Z,13.45
2022-10-09T08:04:32.884Z,13.20
2022-10-09T08:07:35.239Z,13.07
2022-10-09T08:10:44.443Z,12.83
2022-10-09T08:13:47.486Z,11.90
2022-10-09T08:16:49.541Z,11.80
2022-10-09T08:19:51.423Z,11.13
2022-10-09T08:22:53.253Z,10.98
2022-10-09T08:25:55.612Z,10.68
2022-10-09T08:29:02.887Z,10.30
2022-10-09T08:32:04.779Z,10.98
2022-10-09T08:35:07.332Z,9.98
2022-10-09T08:38:21.292Z,10.05
2022-10-09T08:41:42.194Z,11.00
2022-10-09T08:44:47.218Z,9.93
2022-10-09T08:47:59.916Z,10.38
2022-10-09T08:51:03.807Z,9.73
2022-10-09T08:54:12.857Z,10.05
2022-10-09T08:57:16.771Z,10.30
2022-10-09T09:00:24.025Z,10.23
2022-10-09T09:03:48.861Z,9.65
2022-10-09T09:06:56.688Z,9.50
2022-10-09T09:10:09.085Z,9.68
2022-10-09T09:13:16.807Z,9.35
2022-10-09T09:16:41.235Z,9.30
2022-10-09T09:19:51.019Z,9.05
2022-10-09T09:22:53.546Z,9.75
2022-10-09T09:25:56.555Z,8.35
2022-10-09T09:29:02.613Z,9.40
2022-10-09T09:32:05.331Z,8.15
2022-10-09T09:35:16.665Z,8.02
2022-10-09T09:38:18.569Z,7.78
2022-10-09T09:41:20.714Z,8.32
2022-10-09T09:44:22.679Z,8.25
2022-10-09T09:47:32.968Z,8.77
2022-10-09T09:50:53.159Z,7.53
2022-10-09T09:54:07.739Z,8.32
2022-10-09T09:57:17.042Z,7.95
2022-10-09T10:00:23.224Z,8.50
2022-10-09T10:03:26.866Z,7.43
2022-10-09T10:06:34.380Z,8.07
2022-10-09T10:09:36.255Z,7.65
2022-10-09T10:12:59.083Z,7.82
2022-10-09T10:16:01.917Z,8.23
2022-10-09T10:19:04.485Z,8.32
2022-10-09T10:22:21.654Z,7.82
2022-10-09T10:25:34.103Z,7.00
2022-10-09T10:28:49.933Z,7.03
2022-10-09T10:31:59.095Z,7.97
2022-10-09T10:35:19.597Z,8.32
2022-10-09T10:38:39.712Z,7.03
2022-10-09T10:41:47.817Z,7.32
2022-10-09T10:45:00.742Z,8.43
2022-10-09T10:48:05.143Z,9.10
2022-10-09T10:51:44.523Z,8.07
2022-10-09T10:54:55.049Z,7.70
2022-10-09T10:58:18.631Z,7.68
2022-10-09T11:01:44.254Z,8.27
2022-10-09T11:05:19.888Z,7.53
2022-10-09T11:08:48.323Z,8.02
2022-10-09T11:12:12.585Z,7.43
2022-10-09T11:15:46.401Z,7.05
2022-10-09T11:19:16.722Z,7.43
2022-10-09T11:22:44.080Z,8.18
2022-10-09T11:26:12.169Z,7.63
2022-10-09T11:29:20.455Z,7.95
2022-10-09T11:32:31.732Z,7.15
2022-10-09T11:35:45.173Z,7.63
2022-10-09T11:41:55.440Z,7.85
2022-10-09T11:45:07.814Z,7.55
2022-10-09T11:48:30.673Z,7.60
2022-10-09T11:51:44.282Z,8.33
2022-10-09T11:54:46.108Z,7.38
2022-10-09T11:57:48.532Z,8.35
2022-10-09T12:00:54.443Z,9.70
2022-10-09T12:04:04.565Z,8.65
2022-10-09T12:07:09.324Z,8.00
2022-10-09T12:10:36.214Z,9.30
2022-10-09T12:13:41.218Z,8.73
2022-10-09T12:16:47.041Z,8.07
2022-10-09T12:20:22.726Z,8.90
2022-10-09T12:23:29.218Z,8.10
2022-10-09T12:26:31.560Z,9.70
2022-10-09T12:29:44.781Z,7.93
2022-10-09T12:33:25.294Z,7.70
2022-10-09T12:36:29.758Z,7.85
2022-10-09T12:39:33.793Z,7.10
2022-10-09T12:42:35.817Z,7.30
2022-10-09T12:45:44.100Z,7.32
2022-10-09T12:48:46.654Z,7.38
2022-10-09T12:51:56.702Z,8.25
2022-10-09T12:55:00.764Z,7.13
2022-10-09T12:58:22.444Z,7.22
2022-10-09T13:01:25.285Z,8.23
2022-10-09T13:04:31.041Z,8.13
2022-10-09T13:07:33.044Z,7.40
2022-10-09T13:10:34.939Z,7.07
2022-10-09T13:13:37.240Z,6.55
2022-10-09T13:16:41.687Z,7.03
2022-10-09T13:19:53.433Z,7.88
2022-10-09T13:23:02.731Z,6.93
2022-10-09T13:26:06.240Z,6.95
2022-10-09T13:29:08.443Z,7.13
2022-10-09T13:32:14.015Z,6.72
2022-10-09T13:35:16.761Z,8.45
2022-10-09T13:38:20.280Z,8.30
2022-10-09T13:41:24.760Z,7.45
2022-10-09T13:44:26.842Z,7.00
2022-10-09T13:47:29.614Z,7.57
2022-10-09T13:50:31.520Z,7.28
2022-10-09T13:53:33.711Z,7.15
2022-10-09T13:56:35.683Z,6.90
2022-10-09T13:59:38.020Z,7.78
2022-10-09T14:02:39.933Z,8.10
2022-10-09T14:05:41.818Z,6.85
2022-10-09T14:08:43.742Z,6.45
2022-10-09T14:11:45.630Z,6.90
2022-10-09T14:14:47.488Z,7.00
2022-10-09T14:17:49.519Z,7.82
2022-10-09T14:20:51.577Z,6.80
2022-10-09T14:23:58.579Z,7.72
2022-10-09T14:27:00.445Z,8.30
2022-10-09T14:30:02.520Z,7.20
2022-10-09T14:33:04.492Z,8.88
2022-10-09T14:36:14.839Z,7.43
2022-10-09T14:39:16.893Z,7.47
2022-10-09T14:42:18.741Z,7.80
2022-10-09T14:45:20.700Z,6.90
2022-10-09T14:48:22.546Z,7.50
2022-10-09T14:51:26.842Z,7.85
2022-10-09T14:54:28.659Z,8.52
2022-10-09T14:57:35.159Z,9.60
2022-10-09T15:00:37.500Z,9.60
2022-10-09T15:03:39.722Z,11.43
2022-10-09T15:06:41.612Z,10.73
2022-10-09T15:09:43.515Z,10.98
2022-10-09T15:12:45.334Z,10.93
2022-10-09T15:15:47.379Z,17.65
2022-10-09T15:18:51.457Z,20.58
2022-10-09T15:21:53.440Z,21.83
2022-10-09T15:24:55.267Z,22.52
2022-10-09T15:28:00.081Z,17.98
2022-10-09T15:31:04.838Z,18.67
2022-10-09T15:34:08.149Z,15.35
2022-10-09T15:40:11.776Z,13.88
2022-10-09T15:43:15.156Z,12.60
2022-10-09T15:46:17.644Z,13.75
2022-10-09T15:49:19.587Z,15.00
2022-10-09T15:52:21.513Z,14.50
2022-10-09T15:55:23.900Z,14.48
2022-10-09T15:58:25.791Z,14.67
2022-10-09T16:01:27.677Z,15.35
2022-10-09T16:04:29.624Z,19.58
2022-10-09T16:07:31.468Z,19.13
2022-10-09T16:10:33.774Z,20.00
2022-10-09T16:13:40.720Z,20.90
2022-10-09T16:16:42.613Z,20.73
2022-10-09T16:19:44.659Z,26.98
2022-10-09T16:22:46.816Z,29.73
2022-10-09T16:25:58.367Z,29.88
2022-10-09T16:29:01.104Z,30.35
2022-10-09T16:32:03.069Z,27.15
2022-10-09T16:35:05.332Z,22.95
2022-10-09T16:38:07.460Z,22.23
2022-10-09T16:41:20.541Z,22.10
2022-10-09T16:44:22.357Z,29.23
2022-10-09T16:47:24.295Z,27.73
2022-10-09T16:50:27.558Z,26.98
2022-10-09T16:56:34.727Z,25.27
2022-10-09T16:59:36.725Z,26.45
2022-10-09T17:02:38.570Z,23.17
2022-10-09T17:05:40.449Z,25.45
2022-10-09T17:08:42.488Z,26.10
2022-10-09T17:11:44.447Z,32.28
2022-10-09T17:14:47.791Z,39.25
2022-10-09T17:20:51.705Z,42.78
2022-10-09T17:23:55.265Z,44.42
2022-10-09T17:26:58.414Z,39.03
2022-10-09T17:30:00.278Z,37.92
2022-10-09T17:33:02.360Z,32.97
2022-10-09T17:39:11.970Z,32.80
2022-10-09T17:42:14.650Z,31.83
2022-10-09T17:45:16.584Z,32.65
2022-10-09T17:48:18.683Z,30.42
2022-10-09T17:51:25.649Z,27.95
2022-10-09T17:54:27.571Z,26.05
2022-10-09T17:57:29.435Z,24.02
2022-10-09T18:00:31.320Z,16.33
2022-10-09T18:03:33.542Z,16.80
2022-10-09T18:06:36.036Z,16.08
2022-10-09T18:09:38.441Z,15.23
2022-10-09T18:12:40.571Z,15.97
2022-10-09T18:15:44.048Z,14.73
2022-10-09T18:18:46.644Z,12.82
2022-10-09T18:21:50.268Z,14.40
2022-10-09T18:24:52.167Z,12.23
2022-10-09T18:27:54.021Z,11.93
2022-10-09T18:30:56.299Z,13.30
2022-10-09T18:33:59.156Z,14.02
2022-10-09T18:37:01.469Z,13.55
2022-10-09T18:40:03.722Z,17.92
2022-10-09T18:43:06.014Z,23.52
2022-10-09T18:46:08.758Z,20.40
2022-10-09T18:49:13.751Z,16.60
2022-10-09T18:52:16.644Z,16.77
2022-10-09T18:55:19.880Z,21.83
2022-10-09T18:58:22.897Z,20.33
2022-10-09T19:01:24.953Z,29.40
2022-10-09T19:04:27.117Z,24.15
2022-10-09T19:07:29.510Z,20.23
2022-10-09T19:10:31.594Z,20.60
2022-10-09T19:13:33.830Z,20.20
2022-10-09T19:16:35.809Z,17.20
2022-10-09T19:19:38.375Z,17.88
2022-10-09T19:22:40.709Z,18.17
2022-10-09T19:25:50.620Z,18.08
2022-10-09T19:28:52.510Z,19.63
2022-10-09T19:31:55.390Z,19.83
2022-10-09T19:34:57.349Z,19.55
2022-10-09T19:37:59.335Z,19.85
2022-10-09T19:41:12.191Z,18.77
2022-10-09T19:44:14.304Z,18.35
2022-10-09T19:47:19.009Z,19.08
2022-10-09T19:50:21.052Z,20.02
2022-10-09T19:53:23.108Z,19.45
2022-10-09T19:56:28.263Z,19.30
2022-10-09T19:59:31.524Z,20.45
2022-10-09T20:02:34.947Z,19.05
2022-10-09T20:08:39.979Z,19.58
2022-10-09T20:14:44.025Z,19.17
2022-10-09T20:17:45.970Z,19.42
2022-10-09T20:20:48.844Z,17.70
2022-10-09T20:23:53.009Z,18.02
2022-10-09T20:26:54.886Z,16.60
2022-10-09T20:29:56.834Z,15.93
2022-10-09T20:32:59.634Z,13.95
2022-10-09T20:36:02.975Z,13.27
2022-10-09T20:39:08.164Z,10.50
2022-10-09T20:42:10.070Z,10.50
2022-10-09T20:45:11.976Z,8.13
2022-10-09T20:48:13.842Z,8.30
2022-10-09T20:51:16.623Z,8.18
2022-10-09T20:54:20.883Z,7.07
2022-10-09T20:57:22.756Z,7.72
2022-10-09T21:00:24.921Z,8.60
2022-10-09T21:03:26.782Z,7.90
2022-10-09T21:06:30.292Z,9.00
2022-10-09T21:09:33.358Z,9.00
2022-10-09T21:15:43.759Z,8.38
2022-10-09T21:18:46.057Z,9.60
2022-10-09T21:21:51.068Z,10.32
2022-10-09T21:24:53.145Z,9.90
2022-10-09T21:27:55.108Z,11.18
2022-10-09T21:30:57.032Z,13.27
2022-10-09T21:34:00.399Z,13.95
2022-10-09T21:40:23.921Z,12.93
2022-10-09T21:43:25.815Z,13.90
2022-10-09T21:46:28.045Z,14.05
2022-10-09T21:49:30.618Z,14.82
2022-10-09T21:52:32.499Z,16.80
2022-10-09T21:55:34.397Z,15.50
2022-10-09T21:58:37.848Z,16.95
2022-10-09T22:01:39.815Z,17.88
2022-10-09T22:04:41.738Z,20.23
2022-10-09T22:07:43.577Z,21.20
2022-10-09T22:10:45.554Z,22.75
2022-10-09T22:13:47.371Z,31.52
2022-10-09T22:16:49.251Z,34.42
2022-10-09T22:19:51.204Z,40.00
2022-10-09T22:22:53.346Z,32.00
2022-10-09T22:26:01.239Z,27.05
2022-10-09T22:29:03.131Z,24.30
2022-10-09T22:32:06.020Z,26.85
2022-10-09T22:35:08.284Z,25.77
2022-10-09T22:38:10.092Z,27.45
2022-10-09T22:41:17.987Z,28.60
2022-10-09T22:44:19.828Z,27.05
2022-10-09T22:47:21.679Z,28.73
2022-10-09T22:50:23.486Z,29.02
2022-10-09T22:53:25.384Z,28.40
2022-10-09T22:56:33.371Z,29.20
2022-10-09T22:59:35.256Z,29.17
2022-10-09T23:02:37.073Z,26.27
2022-10-09T23:05:39.078Z,23.70
2022-10-09T23:08:43.847Z,23.88
2022-10-09T23:11:46.070Z,23.75
2022-10-09T23:14:47.893Z,23.55
2022-10-09T23:17:49.929Z,20.02
2022-10-09T23:20:51.743Z,18.38
2022-10-09T23:23:54.121Z,18.42
2022-10-09T23:26:55.993Z,19.40
2022-10-09T23:29:57.915Z,21.60
2022-10-09T23:32:59.763Z,21.98
2022-10-09T23:36:05.537Z,18.70
2022-10-09T23:39:07.389Z,25.02
2022-10-09T23:42:09.263Z,18.50
2022-10-09T23:45:11.474Z,18.17
2022-10-09T23:48:13.337Z,29.40
2022-10-09T23:51:15.991Z,20.95
2022-10-09T23:54:17.856Z,22.83
2022-10-09T23:57:19.686Z,18.25
